sensor_id;sensor_type;location;lat;lon;timestamp;pressure;altitude;pressure_sealevel;temperature;humidity
22582;BME280;47125;48.542;9.052;2024-02-16T00:07:18;95811.03;;;12.55;65.96
22582;BME280;47125;48.542;9.052;2024-02-16T00:17:20;95811.25;;;12.54;65.19
22582;BME280;47125;48.542;9.052;2024-02-16T00:27:24;95791.16;;;12.51;65.37
22582;BME280;47125;48.542;9.052;2024-02-16T00:37:27;95793.72;;;12.41;66.45
22582;BME280;47125;48.542;9.052;2024-02-16T00:47:31;95790.75;;;12.38;66.73
22582;BME280;47125;48.542;9.052;2024-02-16T00:57:33;95784.19;;;12.24;69.32
22582;BME280;47125;48.542;9.052;2024-02-16T01:07:37;95787.31;;;12.15;68.55
22582;BME280;47125;48.542;9.052;2024-02-16T01:17:41;95780.13;;;12.21;67.24
22582;BME280;47125;48.542;9.052;2024-02-16T01:27:44;95783.16;;;12.30;64.74
22582;BME280;47125;48.542;9.052;2024-02-16T01:37:47;95778.13;;;12.33;64.41
22582;BME280;47125;48.542;9.052;2024-02-16T01:47:51;95784.34;;;12.39;63.82
22582;BME280;47125;48.542;9.052;2024-02-16T01:57:54;95774.13;;;12.36;64.29
22582;BME280;47125;48.542;9.052;2024-02-16T02:07:58;95769.53;;;12.31;65.23
22582;BME280;47125;48.542;9.052;2024-02-16T02:18:01;95762.03;;;12.28;64.55
22582;BME280;47125;48.542;9.052;2024-02-16T02:28:05;95752.91;;;12.29;65.15
22582;BME280;47125;48.542;9.052;2024-02-16T02:38:07;95754.69;;;12.19;66.39
22582;BME280;47125;48.542;9.052;2024-02-16T02:48:12;95742.66;;;12.21;65.01
22582;BME280;47125;48.542;9.052;2024-02-16T02:58:15;95743.47;;;12.22;64.39
22582;BME280;47125;48.542;9.052;2024-02-16T03:08:20;95733.34;;;12.29;63.06
22582;BME280;47125;48.542;9.052;2024-02-16T03:18:22;95726.06;;;12.19;63.65
22582;BME280;47125;48.542;9.052;2024-02-16T03:28:26;95731.59;;;12.12;63.01
22582;BME280;47125;48.542;9.052;2024-02-16T03:38:29;95738.31;;;12.15;63.09
22582;BME280;47125;48.542;9.052;2024-02-16T03:48:33;95756.94;;;12.05;64.69
22582;BME280;47125;48.542;9.052;2024-02-16T03:58:35;95747.50;;;11.97;65.33
22582;BME280;47125;48.542;9.052;2024-02-16T04:08:39;95754.19;;;11.95;64.47
22582;BME280;47125;48.542;9.052;2024-02-16T04:18:42;95753.38;;;11.94;64.06
22582;BME280;47125;48.542;9.052;2024-02-16T04:28:46;95754.00;;;12.01;63.36
22582;BME280;47125;48.542;9.052;2024-02-16T04:38:49;95764.19;;;12.04;62.54
22582;BME280;47125;48.542;9.052;2024-02-16T04:48:53;95765.19;;;11.98;63.43
22582;BME280;47125;48.542;9.052;2024-02-16T04:58:55;95765.78;;;12.05;63.11
22582;BME280;47125;48.542;9.052;2024-02-16T05:08:59;95766.78;;;11.99;63.60
22582;BME280;47125;48.542;9.052;2024-02-16T05:19:02;95782.75;;;11.89;63.85
22582;BME280;47125;48.542;9.052;2024-02-16T05:29:06;95785.53;;;11.78;62.27
22582;BME280;47125;48.542;9.052;2024-02-16T05:39:08;95782.34;;;11.81;61.51
22582;BME280;47125;48.542;9.052;2024-02-16T05:49:24;95800.03;;;11.82;61.69
22582;BME280;47125;48.542;9.052;2024-02-16T05:59:26;95802.03;;;11.70;61.74
22582;BME280;47125;48.542;9.052;2024-02-16T06:09:30;95807.75;;;11.78;61.20
22582;BME280;47125;48.542;9.052;2024-02-16T06:19:35;95822.69;;;11.74;61.31
22582;BME280;47125;48.542;9.052;2024-02-16T06:29:40;95830.78;;;11.79;61.05
22582;BME280;47125;48.542;9.052;2024-02-16T06:39:42;95834.16;;;11.91;60.54
22582;BME280;47125;48.542;9.052;2024-02-16T06:49:46;95849.06;;;11.87;61.00
22582;BME280;47125;48.542;9.052;2024-02-16T06:59:49;95857.03;;;11.82;61.48
22582;BME280;47125;48.542;9.052;2024-02-16T07:09:53;95866.00;;;11.71;62.74
22582;BME280;47125;48.542;9.052;2024-02-16T07:19:56;95876.69;;;11.71;62.67
22582;BME280;47125;48.542;9.052;2024-02-16T07:30:00;95878.69;;;11.81;61.81
22582;BME280;47125;48.542;9.052;2024-02-16T07:40:03;95889.16;;;11.82;62.13
22582;BME280;47125;48.542;9.052;2024-02-16T07:50:09;95886.78;;;11.86;61.28
22582;BME280;47125;48.542;9.052;2024-02-16T08:00:12;95894.16;;;11.95;60.78
22582;BME280;47125;48.542;9.052;2024-02-16T08:10:19;95894.53;;;12.04;60.55
22582;BME280;47125;48.542;9.052;2024-02-16T08:20:24;95906.91;;;12.10;59.83
22582;BME280;47125;48.542;9.052;2024-02-16T08:30:28;95909.19;;;12.23;59.88
22582;BME280;47125;48.542;9.052;2024-02-16T08:40:30;95913.56;;;12.51;59.02
22582;BME280;47125;48.542;9.052;2024-02-16T08:50:34;95931.56;;;12.55;58.10
22582;BME280;47125;48.542;9.052;2024-02-16T09:00:37;95930.88;;;12.92;56.93
22582;BME280;47125;48.542;9.052;2024-02-16T09:10:41;95934.28;;;13.09;56.08
22582;BME280;47125;48.542;9.052;2024-02-16T09:20:44;95947.66;;;13.36;55.79
22582;BME280;47125;48.542;9.052;2024-02-16T09:30:48;95958.69;;;13.76;55.07
22582;BME280;47125;48.542;9.052;2024-02-16T09:40:50;95951.78;;;13.85;55.27
22582;BME280;47125;48.542;9.052;2024-02-16T09:50:54;95972.75;;;13.88;55.71
22582;BME280;47125;48.542;9.052;2024-02-16T10:00:58;95985.38;;;13.88;56.23
22582;BME280;47125;48.542;9.052;2024-02-16T10:11:02;96008.25;;;13.95;57.20
22582;BME280;47125;48.542;9.052;2024-02-16T10:21:05;96012.06;;;14.04;57.41
22582;BME280;47125;48.542;9.052;2024-02-16T10:31:10;96014.31;;;14.17;57.54
22582;BME280;47125;48.542;9.052;2024-02-16T10:41:12;96016.63;;;14.41;57.21
22582;BME280;47125;48.542;9.052;2024-02-16T10:51:17;96025.34;;;14.63;57.43
22582;BME280;47125;48.542;9.052;2024-02-16T11:01:22;96011.78;;;15.00;56.55
22582;BME280;47125;48.542;9.052;2024-02-16T11:11:26;96012.19;;;15.49;55.86
22582;BME280;47125;48.542;9.052;2024-02-16T11:21:29;96016.25;;;16.07;55.20
22582;BME280;47125;48.542;9.052;2024-02-16T11:31:33;96009.69;;;16.73;53.88
22582;BME280;47125;48.542;9.052;2024-02-16T11:41:35;96017.50;;;17.29;52.17
22582;BME280;47125;48.542;9.052;2024-02-16T11:51:39;96016.75;;;17.18;52.00
22582;BME280;47125;48.542;9.052;2024-02-16T12:01:48;96019.59;;;16.83;52.96
22582;BME280;47125;48.542;9.052;2024-02-16T12:11:53;96018.34;;;16.60;53.55
22582;BME280;47125;48.542;9.052;2024-02-16T12:21:56;96022.13;;;16.54;54.34
22582;BME280;47125;48.542;9.052;2024-02-16T12:32:00;96022.09;;;16.64;54.11
22582;BME280;47125;48.542;9.052;2024-02-16T12:42:02;96026.34;;;16.80;54.36
22582;BME280;47125;48.542;9.052;2024-02-16T12:52:06;96024.25;;;16.62;53.59
22582;BME280;47125;48.542;9.052;2024-02-16T13:02:09;96018.84;;;16.72;54.41
22582;BME280;47125;48.542;9.052;2024-02-16T13:12:13;96020.47;;;16.68;54.93
22582;BME280;47125;48.542;9.052;2024-02-16T13:22:18;96016.72;;;16.59;55.31
22582;BME280;47125;48.542;9.052;2024-02-16T13:32:22;96031.00;;;16.60;55.98
22582;BME280;47125;48.542;9.052;2024-02-16T13:42:25;96035.06;;;16.57;57.39
22582;BME280;47125;48.542;9.052;2024-02-16T13:52:31;96044.75;;;16.48;58.48
22582;BME280;47125;48.542;9.052;2024-02-16T14:02:33;96042.03;;;16.53;59.16
22582;BME280;47125;48.542;9.052;2024-02-16T14:12:37;96055.81;;;16.51;58.91
22582;BME280;47125;48.542;9.052;2024-02-16T14:22:40;96065.25;;;16.54;59.53
22582;BME280;47125;48.542;9.052;2024-02-16T14:32:43;96071.72;;;16.33;60.19
22582;BME280;47125;48.542;9.052;2024-02-16T14:42:46;96082.78;;;16.26;61.00
22582;BME280;47125;48.542;9.052;2024-02-16T14:52:50;96087.91;;;16.13;61.01
22582;BME280;47125;48.542;9.052;2024-02-16T15:02:52;96101.13;;;16.09;61.15
22582;BME280;47125;48.542;9.052;2024-02-16T15:12:56;96106.50;;;15.94;61.56
22582;BME280;47125;48.542;9.052;2024-02-16T15:22:59;96114.03;;;15.92;61.76
22582;BME280;47125;48.542;9.052;2024-02-16T15:33:02;96113.22;;;16.02;61.82
22582;BME280;47125;48.542;9.052;2024-02-16T15:43:05;96128.03;;;15.89;62.38
22582;BME280;47125;48.542;9.052;2024-02-16T15:53:10;96142.56;;;15.88;62.87
22582;BME280;47125;48.542;9.052;2024-02-16T16:03:13;96144.69;;;15.76;63.45
22582;BME280;47125;48.542;9.052;2024-02-16T16:13:17;96149.50;;;15.64;63.83
22582;BME280;47125;48.542;9.052;2024-02-16T16:23:19;96152.69;;;15.51;64.73
22582;BME280;47125;48.542;9.052;2024-02-16T16:33:23;96171.00;;;15.49;64.80
22582;BME280;47125;48.542;9.052;2024-02-16T16:43:26;96180.56;;;15.29;65.85
22582;BME280;47125;48.542;9.052;2024-02-16T16:53:30;96191.91;;;15.36;65.83
22582;BME280;47125;48.542;9.052;2024-02-16T17:03:32;96216.59;;;15.23;65.73
22582;BME280;47125;48.542;9.052;2024-02-16T17:13:36;96226.19;;;15.09;66.25
22582;BME280;47125;48.542;9.052;2024-02-16T17:23:40;96241.72;;;15.02;66.77
22582;BME280;47125;48.542;9.052;2024-02-16T17:33:46;96252.47;;;14.97;67.11
22582;BME280;47125;48.542;9.052;2024-02-16T17:43:49;96276.38;;;14.94;67.14
22582;BME280;47125;48.542;9.052;2024-02-16T17:53:53;96284.19;;;14.95;67.37
22582;BME280;47125;48.542;9.052;2024-02-16T18:03:55;96300.44;;;14.78;68.21
22582;BME280;47125;48.542;9.052;2024-02-16T18:13:59;96304.16;;;14.72;68.63
22582;BME280;47125;48.542;9.052;2024-02-16T18:24:02;96311.34;;;14.62;69.73
22582;BME280;47125;48.542;9.052;2024-02-16T18:34:06;96310.34;;;14.73;69.33
22582;BME280;47125;48.542;9.052;2024-02-16T18:44:10;96310.78;;;14.92;68.41
22582;BME280;47125;48.542;9.052;2024-02-16T18:54:14;96327.91;;;14.80;69.42
22582;BME280;47125;48.542;9.052;2024-02-16T19:04:17;96330.19;;;14.67;70.19
22582;BME280;47125;48.542;9.052;2024-02-16T19:14:21;96341.75;;;14.41;71.90
22582;BME280;47125;48.542;9.052;2024-02-16T19:24:25;96353.56;;;14.66;70.74
22582;BME280;47125;48.542;9.052;2024-02-16T19:34:41;96357.03;;;14.62;71.27
22582;BME280;47125;48.542;9.052;2024-02-16T19:44:43;96364.22;;;14.56;71.64
22582;BME280;47125;48.542;9.052;2024-02-16T19:54:47;96374.91;;;14.51;71.81
22582;BME280;47125;48.542;9.052;2024-02-16T20:04:50;96387.28;;;14.52;72.14
22582;BME280;47125;48.542;9.052;2024-02-16T20:14:54;96389.34;;;14.45;72.57
22582;BME280;47125;48.542;9.052;2024-02-16T20:24:57;96398.03;;;14.09;74.92
22582;BME280;47125;48.542;9.052;2024-02-16T20:35:01;96407.84;;;14.20;74.94
22582;BME280;47125;48.542;9.052;2024-02-16T20:45:05;96412.16;;;14.21;75.08
22582;BME280;47125;48.542;9.052;2024-02-16T20:55:10;96432.03;;;14.20;75.21
22582;BME280;47125;48.542;9.052;2024-02-16T21:05:12;96442.00;;;14.03;76.14
22582;BME280;47125;48.542;9.052;2024-02-16T21:15:16;96449.97;;;13.98;76.53
22582;BME280;47125;48.542;9.052;2024-02-16T21:25:19;96466.91;;;13.98;76.74
22582;BME280;47125;48.542;9.052;2024-02-16T21:35:23;96479.41;;;14.09;76.59
22582;BME280;47125;48.542;9.052;2024-02-16T21:45:33;96486.69;;;14.09;77.79
22582;BME280;47125;48.542;9.052;2024-02-16T21:55:36;96496.84;;;13.73;81.31
22582;BME280;47125;48.542;9.052;2024-02-16T22:05:39;96503.13;;;13.79;81.96
22582;BME280;47125;48.542;9.052;2024-02-16T22:15:43;96510.34;;;13.62;83.81
22582;BME280;47125;48.542;9.052;2024-02-16T22:25:47;96519.03;;;13.36;85.73
22582;BME280;47125;48.542;9.052;2024-02-16T22:35:51;96536.00;;;13.69;84.77
22582;BME280;47125;48.542;9.052;2024-02-16T22:45:54;96532.22;;;13.70;84.53
22582;BME280;47125;48.542;9.052;2024-02-16T22:55:58;96542.16;;;13.53;86.65
22582;BME280;47125;48.542;9.052;2024-02-16T23:06:01;96551.84;;;13.54;86.79
22582;BME280;47125;48.542;9.052;2024-02-16T23:16:06;96560.38;;;13.51;87.17
22582;BME280;47125;48.542;9.052;2024-02-16T23:26:10;96563.91;;;13.40;87.58
22582;BME280;47125;48.542;9.052;2024-02-16T23:36:14;96567.31;;;13.36;88.15
22582;BME280;47125;48.542;9.052;2024-02-16T23:46:19;96590.78;;;13.29;88.85
22582;BME280;47125;48.542;9.052;2024-02-16T23:56:23;96587.59;;;13.03;90.90
